Black Sheep — ZGBS9 — position and weather

sailwx.info

Track history (hours):
 
Tides and Currents Weather Stations Pressure Air Temp Water Temp Dewpoint Dewpoint Depression Visibility Wind Speed Wind Dir Waves Ship Positions

Black Sheep

Last reported at 2015-Aug-04 19:33 UTC. Time now 2015-Aug-04 19:57 UTC.
Position N 41°29' W 071°20'.

Length 40 m; draft 2.5 m.

Type: Pleasure craft. MMSI: 319041200.

Date/timePositionNaut miles runAvg speedWind from/ knotsBaromVisibWave heightAir tempDewpointWater temp
2015-Aug-04 19:33N 41°29' W 071°20'0 0.0
2015-Aug-04 18:33N 41°29' W 071°20'0 0.0
2015-Aug-04 17:32N 41°29' W 071°20'0 0.0
2015-Aug-04 15:17N 41°29' W 071°20'0 0.0
2015-Aug-04 07:31N 41°29' W 071°20'0 0.0
2015-Aug-04 06:32N 41°29' W 071°20'0 0.0
2015-Aug-04 05:33N 41°29' W 071°20'0 0.0
2015-Aug-04 04:30N 41°29' W 071°20'0 0.0
2015-Aug-04 02:06N 41°29' W 071°20'0 0.0
2015-Aug-04 01:25N 41°29' W 071°20'0 0.0
2015-Aug-04 00:33N 41°29' W 071°20'0 0.0
2015-Aug-03 23:33N 41°29' W 071°20'0 0.0
2015-Aug-03 22:31N 41°29' W 071°20'0 0.0
2015-Aug-03 21:33N 41°29' W 071°20'0 0.0
2015-Aug-03 20:33N 41°29' W 071°20'0 0.0
2015-Aug-03 19:33N 41°29' W 071°20'0 0.0
2015-Aug-03 18:33N 41°29' W 071°20'0 0.0
2015-Aug-03 17:32N 41°29' W 071°20'0 0.0
2015-Aug-03 16:32N 41°29' W 071°20'0 0.0
2015-Aug-03 15:33N 41°29' W 071°20'0 0.0
2015-Aug-03 14:33N 41°29' W 071°20'0 0.0
2015-Aug-03 13:33N 41°29' W 071°20'0 0.0
2015-Aug-03 12:33N 41°29' W 071°20'0 0.0
2015-Aug-03 11:33N 41°29' W 071°20'0 0.0
2015-Aug-03 10:33N 41°29' W 071°20'0 0.0
2015-Aug-03 09:32N 41°29' W 071°20'0 0.0
2015-Aug-03 08:33N 41°29' W 071°20'0 0.0
2015-Aug-03 07:34N 41°29' W 071°20'0 0.0
2015-Aug-03 06:33N 41°29' W 071°20'0 0.0
2015-Aug-03 05:33N 41°29' W 071°20'0 0.0
2015-Aug-03 04:32N 41°29' W 071°20'0 0.0
2015-Aug-03 03:33N 41°29' W 071°20'0 0.0
2015-Aug-03 02:33N 41°29' W 071°20'0 0.0
2015-Aug-03 01:30N 41°29' W 071°20'0 0.0
2015-Aug-03 00:32N 41°29' W 071°20'0 0.0
2015-Aug-02 23:33N 41°29' W 071°20'0 0.0
2015-Aug-02 22:33N 41°29' W 071°20'0 0.0
2015-Aug-02 21:34N 41°29' W 071°20'0 0.0
2015-Aug-02 20:33N 41°29' W 071°20'0 0.0
2015-Aug-02 19:33N 41°29' W 071°20'0 0.0
2015-Aug-02 18:32N 41°29' W 071°20'0 0.0
2015-Aug-02 17:27N 41°29' W 071°20'0 0.0
2015-Aug-02 16:27N 41°29' W 071°20'0 0.0
2015-Aug-02 15:17N 41°29' W 071°20'0 0.0
2015-Aug-02 14:20N 41°29' W 071°20'2 2.0
2015-Aug-02 13:33N 41°28' W 071°21'1414.2
2015-Aug-02 12:34N 41°20' W 071°36'1514.6
2015-Aug-02 11:34N 41°18' W 071°55'4 4.1
2015-Aug-02 10:34N 41°22' W 071°58'0 0.0
2015-Aug-02 09:34N 41°22' W 071°58'0 0.0
2015-Aug-02 08:34N 41°22' W 071°58'0 0.0
2015-Aug-02 07:34N 41°22' W 071°58'0 0.0
2015-Aug-02 06:34N 41°22' W 071°58'0 0.0
2015-Aug-02 05:34N 41°22' W 071°58'0 0.0
2015-Aug-02 04:34N 41°22' W 071°58'0 0.0
2015-Aug-02 03:34N 41°22' W 071°58'0 0.0
2015-Aug-02 02:34N 41°22' W 071°58'0 0.0
2015-Aug-02 01:34N 41°22' W 071°58'0 0.0
2015-Aug-02 00:34N 41°22' W 071°58'0 0.0
2015-Aug-01 23:34N 41°22' W 071°58'0 0.0
2015-Aug-01 22:34N 41°22' W 071°58'0 0.0
2015-Aug-01 21:34N 41°22' W 071°58'0 0.0
2015-Aug-01 20:34N 41°22' W 071°58'0 0.0
2015-Aug-01 19:34N 41°22' W 071°58'1 0.7
2015-Aug-01 18:34N 41°21' W 071°58'3 3.4
2015-Aug-01 17:34N 41°18' W 071°59'4 3.8
2015-Aug-01 16:33N 41°21' W 071°58'0 0.2
2015-Aug-01 15:34N 41°22' W 071°58'0 0.0
2015-Aug-01 14:34N 41°22' W 071°58'0 0.0
2015-Aug-01 13:34N 41°22' W 071°58'0 0.0
2015-Aug-01 12:34N 41°22' W 071°58'0 0.0
2015-Aug-01 11:34N 41°22' W 071°58'0 0.0
2015-Aug-01 10:34N 41°22' W 071°58'0 0.0
2015-Aug-01 09:34N 41°22' W 071°58'0 0.0
2015-Aug-01 08:34N 41°22' W 071°58'0 0.0
2015-Aug-01 07:34N 41°22' W 071°58'0 0.0
2015-Aug-01 06:33N 41°22' W 071°58'0 0.0
2015-Aug-01 05:34N 41°22' W 071°58'0 0.0
2015-Aug-01 04:34N 41°22' W 071°58'0 0.0
2015-Aug-01 03:34N 41°22' W 071°58'0 0.0
2015-Aug-01 02:34N 41°22' W 071°58'0 0.0
2015-Aug-01 01:34N 41°22' W 071°58'0 0.0
2015-Aug-01 00:34N 41°22' W 071°58'0 0.0
2015-Jul-31 23:34N 41°22' W 071°58'0 0.5
2015-Jul-31 22:34N 41°21' W 071°58'2 2.3
2015-Jul-31 21:34N 41°19' W 071°59'2912.4
2015-Jul-31 19:12N 41°28' W 071°22'2 0.4
2015-Jul-31 12:26N 41°29' W 071°20'0 0.0
2015-Jul-31 11:33N 41°29' W 071°20'0 0.0
2015-Jul-31 10:33N 41°29' W 071°20'0 0.0
2015-Jul-31 09:33N 41°29' W 071°20'0 0.0
2015-Jul-31 08:33N 41°29' W 071°20'0 0.0
2015-Jul-31 07:33N 41°29' W 071°20'0 0.0
2015-Jul-31 06:33N 41°29' W 071°20'0 0.0
2015-Jul-31 05:33N 41°29' W 071°20'0 0.0
2015-Jul-31 04:31N 41°29' W 071°20'0 0.0
2015-Jul-31 03:30N 41°29' W 071°20'0 0.0
2015-Jul-31 02:31N 41°29' W 071°20'0 0.0
2015-Jul-31 01:13N 41°29' W 071°20'0 0.0
2015-Jul-31 00:33N 41°29' W 071°20'0 0.0
2015-Jul-30 23:33N 41°29' W 071°20'0 0.0
2015-Jul-30 22:33N 41°29' W 071°20'0 0.0
2015-Jul-30 21:33N 41°29' W 071°20'0 0.0
2015-Jul-30 20:33N 41°29' W 071°20'0 0.0
2015-Jul-30 19:32N 41°29' W 071°20'0 0.0
2015-Jul-30 18:32N 41°29' W 071°20'0 0.0
2015-Jul-30 17:32N 41°29' W 071°20'0 0.0
2015-Jul-30 16:33N 41°29' W 071°20'0 0.0
2015-Jul-30 15:33N 41°29' W 071°20'0 0.0
2015-Jul-30 14:31N 41°29' W 071°20'0 0.0
2015-Jul-30 13:27N 41°29' W 071°20'0 0.0
2015-Jul-30 12:27N 41°29' W 071°20'0 0.0
2015-Jul-30 11:33N 41°29' W 071°20'0 0.0
2015-Jul-30 10:33N 41°29' W 071°20'0 0.0
2015-Jul-30 09:31N 41°29' W 071°20'0 0.0
2015-Jul-30 08:31N 41°29' W 071°20'0 0.0
2015-Jul-30 07:25N 41°29' W 071°20'0 0.0
2015-Jul-30 06:34N 41°29' W 071°20'0 0.0
2015-Jul-30 05:33N 41°29' W 071°20'0 0.0
2015-Jul-30 04:34N 41°29' W 071°20'0 0.0
2015-Jul-30 03:34N 41°29' W 071°20'0 0.0
2015-Jul-30 02:34N 41°29' W 071°20'0 0.0
2015-Jul-30 01:33N 41°29' W 071°20'0 0.0
2015-Jul-30 00:33N 41°29' W 071°20'0 0.0
2015-Jul-29 23:33N 41°29' W 071°20'0 0.0
2015-Jul-29 22:33N 41°29' W 071°20'0 0.0
2015-Jul-29 21:33N 41°29' W 071°20'0 0.0
2015-Jul-29 20:33N 41°29' W 071°20'0 0.0
2015-Jul-29 19:33N 41°29' W 071°20'0 0.0
2015-Jul-29 18:34N 41°29' W 071°20'0 0.0
2015-Jul-29 17:33N 41°29' W 071°20'0 0.0
2015-Jul-29 16:34N 41°29' W 071°20'0 0.0
2015-Jul-29 15:33N 41°29' W 071°20'0 0.0
2015-Jul-29 14:33N 41°29' W 071°20'0 0.0
2015-Jul-29 13:34N 41°29' W 071°20'0 0.0
2015-Jul-29 12:33N 41°29' W 071°20'0 0.0
2015-Jul-29 11:33N 41°29' W 071°20'0 0.0
2015-Jul-29 10:34N 41°29' W 071°20'0 0.0
2015-Jul-29 09:33N 41°29' W 071°20'0 0.0
2015-Jul-29 08:33N 41°29' W 071°20'0 0.0
2015-Jul-29 07:33N 41°29' W 071°20'0 0.0
2015-Jul-29 06:33N 41°29' W 071°20'0 0.0
2015-Jul-29 05:33N 41°29' W 071°20'0 0.0
2015-Jul-29 04:33N 41°29' W 071°20'0 0.0
2015-Jul-29 03:34N 41°29' W 071°20'0 0.0
2015-Jul-29 02:33N 41°29' W 071°20'0 0.0
2015-Jul-29 01:33N 41°29' W 071°20'0 0.0
2015-Jul-29 00:33N 41°29' W 071°20'0 0.0
2015-Jul-28 23:32N 41°29' W 071°20'0 0.0
2015-Jul-28 22:34N 41°29' W 071°20'0 0.0
2015-Jul-28 21:33N 41°29' W 071°20'0 0.0
2015-Jul-28 20:33N 41°29' W 071°20'0 0.0
2015-Jul-28 19:33N 41°29' W 071°20'0 0.0
2015-Jul-28 18:34N 41°29' W 071°20'0 0.0
2015-Jul-28 17:29N 41°29' W 071°20'0 0.0
2015-Jul-28 16:33N 41°29' W 071°20'0 0.0
2015-Jul-28 15:33N 41°29' W 071°20'0 0.0
2015-Jul-28 14:33N 41°29' W 071°20'0 0.0
2015-Jul-28 13:34N 41°29' W 071°20'0 0.0
2015-Jul-28 12:32N 41°29' W 071°20'0 0.0
2015-Jul-28 11:34N 41°29' W 071°20'0 0.0
2015-Jul-28 10:27N 41°29' W 071°20'0 0.0
2015-Jul-28 09:33N 41°29' W 071°20'0 0.0
2015-Jul-28 08:33N 41°29' W 071°20'0 0.0
2015-Jul-28 07:33N 41°29' W 071°20'0 0.0
2015-Jul-28 06:33N 41°29' W 071°20'0 0.0
2015-Jul-28 05:33N 41°29' W 071°20'0 0.0
2015-Jul-28 04:33N 41°29' W 071°20'0 0.0
2015-Jul-28 03:34N 41°29' W 071°20'0 0.0
2015-Jul-28 02:33N 41°29' W 071°20'0 0.0
2015-Jul-28 01:33N 41°29' W 071°20'0 0.0
2015-Jul-28 00:31N 41°29' W 071°20'0 0.0
2015-Jul-27 23:34N 41°29' W 071°20'0 0.0
2015-Jul-27 22:33N 41°29' W 071°20'0 0.0
2015-Jul-27 21:33N 41°29' W 071°20'0 0.0
2015-Jul-27 20:34N 41°29' W 071°20'0 0.0
2015-Jul-27 19:31N 41°29' W 071°20'0 0.0
2015-Jul-27 18:32N 41°29' W 071°20'0 0.0
2015-Jul-27 17:33N 41°29' W 071°20'0 0.0
2015-Jul-27 16:33N 41°29' W 071°20'0 0.0
2015-Jul-27 15:31N 41°29' W 071°20'0 0.0
2015-Jul-27 14:33N 41°29' W 071°20'0 0.0
2015-Jul-27 13:21N 41°29' W 071°20'0 0.0
2015-Jul-27 12:33N 41°29' W 071°20'0 0.0
2015-Jul-27 03:15N 41°29' W 071°20'  
Track history (hours):
 
Tides and Currents Weather Stations Pressure Air Temp Water Temp Dewpoint Dewpoint Depression Visibility Wind Speed Wind Dir Waves Ship Positions

Black Sheep

Last reported at 2015-Aug-04 19:33 UTC. Time now 2015-Aug-04 19:57 UTC.
Position N 41°29' W 071°20'.

Length 40 m; draft 2.5 m.

Type: Pleasure craft. MMSI: 319041200.

Date/timePositionNaut miles runAvg speedWind from/ knotsBaromVisibWave heightAir tempDewpointWater temp
2015-Aug-04 19:33N 41°29' W 071°20'0 0.0
2015-Aug-04 18:33N 41°29' W 071°20'0 0.0
2015-Aug-04 17:32N 41°29' W 071°20'0 0.0
2015-Aug-04 15:17N 41°29' W 071°20'0 0.0
2015-Aug-04 07:31N 41°29' W 071°20'0 0.0
2015-Aug-04 06:32N 41°29' W 071°20'0 0.0
2015-Aug-04 05:33N 41°29' W 071°20'0 0.0
2015-Aug-04 04:30N 41°29' W 071°20'0 0.0
2015-Aug-04 02:06N 41°29' W 071°20'0 0.0
2015-Aug-04 01:25N 41°29' W 071°20'0 0.0
2015-Aug-04 00:33N 41°29' W 071°20'0 0.0
2015-Aug-03 23:33N 41°29' W 071°20'0 0.0
2015-Aug-03 22:31N 41°29' W 071°20'0 0.0
2015-Aug-03 21:33N 41°29' W 071°20'0 0.0
2015-Aug-03 20:33N 41°29' W 071°20'0 0.0
2015-Aug-03 19:33N 41°29' W 071°20'0 0.0
2015-Aug-03 18:33N 41°29' W 071°20'0 0.0
2015-Aug-03 17:32N 41°29' W 071°20'0 0.0
2015-Aug-03 16:32N 41°29' W 071°20'0 0.0
2015-Aug-03 15:33N 41°29' W 071°20'0 0.0
2015-Aug-03 14:33N 41°29' W 071°20'0 0.0
2015-Aug-03 13:33N 41°29' W 071°20'0 0.0
2015-Aug-03 12:33N 41°29' W 071°20'0 0.0
2015-Aug-03 11:33N 41°29' W 071°20'0 0.0
2015-Aug-03 10:33N 41°29' W 071°20'0 0.0
2015-Aug-03 09:32N 41°29' W 071°20'0 0.0
2015-Aug-03 08:33N 41°29' W 071°20'0 0.0
2015-Aug-03 07:34N 41°29' W 071°20'0 0.0
2015-Aug-03 06:33N 41°29' W 071°20'0 0.0
2015-Aug-03 05:33N 41°29' W 071°20'0 0.0
2015-Aug-03 04:32N 41°29' W 071°20'0 0.0
2015-Aug-03 03:33N 41°29' W 071°20'0 0.0
2015-Aug-03 02:33N 41°29' W 071°20'0 0.0
2015-Aug-03 01:30N 41°29' W 071°20'0 0.0
2015-Aug-03 00:32N 41°29' W 071°20'0 0.0
2015-Aug-02 23:33N 41°29' W 071°20'0 0.0
2015-Aug-02 22:33N 41°29' W 071°20'0 0.0
2015-Aug-02 21:34N 41°29' W 071°20'0 0.0
2015-Aug-02 20:33N 41°29' W 071°20'0 0.0
2015-Aug-02 19:33N 41°29' W 071°20'0 0.0
2015-Aug-02 18:32N 41°29' W 071°20'0 0.0
2015-Aug-02 17:27N 41°29' W 071°20'0 0.0
2015-Aug-02 16:27N 41°29' W 071°20'0 0.0
2015-Aug-02 15:17N 41°29' W 071°20'0 0.0
2015-Aug-02 14:20N 41°29' W 071°20'2 2.0
2015-Aug-02 13:33N 41°28' W 071°21'1414.2
2015-Aug-02 12:34N 41°20' W 071°36'1514.6
2015-Aug-02 11:34N 41°18' W 071°55'4 4.1
2015-Aug-02 10:34N 41°22' W 071°58'0 0.0
2015-Aug-02 09:34N 41°22' W 071°58'0 0.0
2015-Aug-02 08:34N 41°22' W 071°58'0 0.0
2015-Aug-02 07:34N 41°22' W 071°58'0 0.0
2015-Aug-02 06:34N 41°22' W 071°58'0 0.0
2015-Aug-02 05:34N 41°22' W 071°58'0 0.0
2015-Aug-02 04:34N 41°22' W 071°58'0 0.0
2015-Aug-02 03:34N 41°22' W 071°58'0 0.0
2015-Aug-02 02:34N 41°22' W 071°58'0 0.0
2015-Aug-02 01:34N 41°22' W 071°58'0 0.0
2015-Aug-02 00:34N 41°22' W 071°58'0 0.0
2015-Aug-01 23:34N 41°22' W 071°58'0 0.0
2015-Aug-01 22:34N 41°22' W 071°58'0 0.0
2015-Aug-01 21:34N 41°22' W 071°58'0 0.0
2015-Aug-01 20:34N 41°22' W 071°58'0 0.0
2015-Aug-01 19:34N 41°22' W 071°58'1 0.7
2015-Aug-01 18:34N 41°21' W 071°58'3 3.4
2015-Aug-01 17:34N 41°18' W 071°59'4 3.8
2015-Aug-01 16:33N 41°21' W 071°58'0 0.2
2015-Aug-01 15:34N 41°22' W 071°58'0 0.0
2015-Aug-01 14:34N 41°22' W 071°58'0 0.0
2015-Aug-01 13:34N 41°22' W 071°58'0 0.0
2015-Aug-01 12:34N 41°22' W 071°58'0 0.0
2015-Aug-01 11:34N 41°22' W 071°58'0 0.0
2015-Aug-01 10:34N 41°22' W 071°58'0 0.0
2015-Aug-01 09:34N 41°22' W 071°58'0 0.0
2015-Aug-01 08:34N 41°22' W 071°58'0 0.0
2015-Aug-01 07:34N 41°22' W 071°58'0 0.0
2015-Aug-01 06:33N 41°22' W 071°58'0 0.0
2015-Aug-01 05:34N 41°22' W 071°58'0 0.0
2015-Aug-01 04:34N 41°22' W 071°58'0 0.0
2015-Aug-01 03:34N 41°22' W 071°58'0 0.0
2015-Aug-01 02:34N 41°22' W 071°58'0 0.0
2015-Aug-01 01:34N 41°22' W 071°58'0 0.0
2015-Aug-01 00:34N 41°22' W 071°58'0 0.0
2015-Jul-31 23:34N 41°22' W 071°58'0 0.5
2015-Jul-31 22:34N 41°21' W 071°58'2 2.3
2015-Jul-31 21:34N 41°19' W 071°59'2912.4
2015-Jul-31 19:12N 41°28' W 071°22'2 0.4
2015-Jul-31 12:26N 41°29' W 071°20'0 0.0
2015-Jul-31 11:33N 41°29' W 071°20'0 0.0
2015-Jul-31 10:33N 41°29' W 071°20'0 0.0
2015-Jul-31 09:33N 41°29' W 071°20'0 0.0
2015-Jul-31 08:33N 41°29' W 071°20'0 0.0
2015-Jul-31 07:33N 41°29' W 071°20'0 0.0
2015-Jul-31 06:33N 41°29' W 071°20'0 0.0
2015-Jul-31 05:33N 41°29' W 071°20'0 0.0
2015-Jul-31 04:31N 41°29' W 071°20'0 0.0
2015-Jul-31 03:30N 41°29' W 071°20'0 0.0
2015-Jul-31 02:31N 41°29' W 071°20'0 0.0
2015-Jul-31 01:13N 41°29' W 071°20'0 0.0
2015-Jul-31 00:33N 41°29' W 071°20'0 0.0
2015-Jul-30 23:33N 41°29' W 071°20'0 0.0
2015-Jul-30 22:33N 41°29' W 071°20'0 0.0
2015-Jul-30 21:33N 41°29' W 071°20'0 0.0
2015-Jul-30 20:33N 41°29' W 071°20'0 0.0
2015-Jul-30 19:32N 41°29' W 071°20'0 0.0
2015-Jul-30 18:32N 41°29' W 071°20'0 0.0
2015-Jul-30 17:32N 41°29' W 071°20'0 0.0
2015-Jul-30 16:33N 41°29' W 071°20'0 0.0
2015-Jul-30 15:33N 41°29' W 071°20'0 0.0
2015-Jul-30 14:31N 41°29' W 071°20'0 0.0
2015-Jul-30 13:27N 41°29' W 071°20'0 0.0
2015-Jul-30 12:27N 41°29' W 071°20'0 0.0
2015-Jul-30 11:33N 41°29' W 071°20'0 0.0
2015-Jul-30 10:33N 41°29' W 071°20'0 0.0
2015-Jul-30 09:31N 41°29' W 071°20'0 0.0
2015-Jul-30 08:31N 41°29' W 071°20'0 0.0
2015-Jul-30 07:25N 41°29' W 071°20'0 0.0
2015-Jul-30 06:34N 41°29' W 071°20'0 0.0
2015-Jul-30 05:33N 41°29' W 071°20'0 0.0
2015-Jul-30 04:34N 41°29' W 071°20'0 0.0
2015-Jul-30 03:34N 41°29' W 071°20'0 0.0
2015-Jul-30 02:34N 41°29' W 071°20'0 0.0
2015-Jul-30 01:33N 41°29' W 071°20'0 0.0
2015-Jul-30 00:33N 41°29' W 071°20'0 0.0
2015-Jul-29 23:33N 41°29' W 071°20'0 0.0
2015-Jul-29 22:33N 41°29' W 071°20'0 0.0
2015-Jul-29 21:33N 41°29' W 071°20'0 0.0
2015-Jul-29 20:33N 41°29' W 071°20'0 0.0
2015-Jul-29 19:33N 41°29' W 071°20'0 0.0
2015-Jul-29 18:34N 41°29' W 071°20'0 0.0
2015-Jul-29 17:33N 41°29' W 071°20'0 0.0
2015-Jul-29 16:34N 41°29' W 071°20'0 0.0
2015-Jul-29 15:33N 41°29' W 071°20'0 0.0
2015-Jul-29 14:33N 41°29' W 071°20'0 0.0
2015-Jul-29 13:34N 41°29' W 071°20'0 0.0
2015-Jul-29 12:33N 41°29' W 071°20'0 0.0
2015-Jul-29 11:33N 41°29' W 071°20'0 0.0
2015-Jul-29 10:34N 41°29' W 071°20'0 0.0
2015-Jul-29 09:33N 41°29' W 071°20'0 0.0
2015-Jul-29 08:33N 41°29' W 071°20'0 0.0
2015-Jul-29 07:33N 41°29' W 071°20'0 0.0
2015-Jul-29 06:33N 41°29' W 071°20'0 0.0
2015-Jul-29 05:33N 41°29' W 071°20'0 0.0
2015-Jul-29 04:33N 41°29' W 071°20'0 0.0
2015-Jul-29 03:34N 41°29' W 071°20'0 0.0
2015-Jul-29 02:33N 41°29' W 071°20'0 0.0
2015-Jul-29 01:33N 41°29' W 071°20'0 0.0
2015-Jul-29 00:33N 41°29' W 071°20'0 0.0
2015-Jul-28 23:32N 41°29' W 071°20'0 0.0
2015-Jul-28 22:34N 41°29' W 071°20'0 0.0
2015-Jul-28 21:33N 41°29' W 071°20'0 0.0
2015-Jul-28 20:33N 41°29' W 071°20'0 0.0
2015-Jul-28 19:33N 41°29' W 071°20'0 0.0
2015-Jul-28 18:34N 41°29' W 071°20'0 0.0
2015-Jul-28 17:29N 41°29' W 071°20'0 0.0
2015-Jul-28 16:33N 41°29' W 071°20'0 0.0
2015-Jul-28 15:33N 41°29' W 071°20'0 0.0
2015-Jul-28 14:33N 41°29' W 071°20'0 0.0
2015-Jul-28 13:34N 41°29' W 071°20'0 0.0
2015-Jul-28 12:32N 41°29' W 071°20'0 0.0
2015-Jul-28 11:34N 41°29' W 071°20'0 0.0
2015-Jul-28 10:27N 41°29' W 071°20'0 0.0
2015-Jul-28 09:33N 41°29' W 071°20'0 0.0
2015-Jul-28 08:33N 41°29' W 071°20'0 0.0
2015-Jul-28 07:33N 41°29' W 071°20'0 0.0
2015-Jul-28 06:33N 41°29' W 071°20'0 0.0
2015-Jul-28 05:33N 41°29' W 071°20'0 0.0
2015-Jul-28 04:33N 41°29' W 071°20'0 0.0
2015-Jul-28 03:34N 41°29' W 071°20'0 0.0
2015-Jul-28 02:33N 41°29' W 071°20'0 0.0
2015-Jul-28 01:33N 41°29' W 071°20'0 0.0
2015-Jul-28 00:31N 41°29' W 071°20'0 0.0
2015-Jul-27 23:34N 41°29' W 071°20'0 0.0
2015-Jul-27 22:33N 41°29' W 071°20'0 0.0
2015-Jul-27 21:33N 41°29' W 071°20'0 0.0
2015-Jul-27 20:34N 41°29' W 071°20'0 0.0
2015-Jul-27 19:31N 41°29' W 071°20'0 0.0
2015-Jul-27 18:32N 41°29' W 071°20'0 0.0
2015-Jul-27 17:33N 41°29' W 071°20'0 0.0
2015-Jul-27 16:33N 41°29' W 071°20'0 0.0
2015-Jul-27 15:31N 41°29' W 071°20'0 0.0
2015-Jul-27 14:33N 41°29' W 071°20'0 0.0
2015-Jul-27 13:21N 41°29' W 071°20'0 0.0
2015-Jul-27 12:33N 41°29' W 071°20'0 0.0
2015-Jul-27 03:15N 41°29' W 071°20'  

Dump ship's entire track history